Time;durP1;ratioP1;P1;durP2;ratioP2;P2;SDS_P1;SDS_P2;PMS_P1;PMS_P2;Temp;Humidity;BMP_temperature;BMP_pressure;BME280_temperature;BME280_humidity;BME280_pressure;Samples;Min_cycle;Max_cycle;Signal;HPM_P1;HPM_P2
2023/08/01 00:00:48;;;;;;;9.80;4.40;;;16.00;99.90;;;;;;5115522;27;20051;-42
2023/08/01 00:03:13;;;;;;;12.13;5.60;;;16.00;99.90;;;;;;5096944;27;20382;-44
2023/08/01 00:05:44;;;;;;;8.40;4.22;;;16.00;99.90;;;;;;5114008;27;20059;-41
2023/08/01 00:08:14;;;;;;;9.40;4.57;;;15.90;99.90;;;;;;5095801;27;20526;-43
2023/08/01 00:10:40;;;;;;;13.60;4.70;;;15.90;99.90;;;;;;5115228;27;20070;-43
2023/08/01 00:13:07;;;;;;;11.55;5.50;;;15.90;99.90;;;;;;5114716;27;20420;-42
2023/08/01 00:15:32;;;;;;;9.77;4.93;;;15.80;99.90;;;;;;5095485;28;20043;-45
2023/08/01 00:17:58;;;;;;;13.25;5.53;;;15.80;99.90;;;;;;5115763;27;20054;-42
2023/08/01 00:20:25;;;;;;;10.35;4.82;;;15.70;99.90;;;;;;5115899;28;20078;-42
2023/08/01 00:22:50;;;;;;;13.38;6.00;;;15.70;99.90;;;;;;5114465;27;20043;-42
2023/08/01 00:25:17;;;;;;;13.70;5.70;;;15.80;99.90;;;;;;5091007;28;20062;-41
2023/08/01 00:27:43;;;;;;;12.63;6.30;;;15.80;99.90;;;;;;5107372;27;20837;-41
2023/08/01 00:30:09;;;;;;;18.15;7.10;;;15.90;99.90;;;;;;5115243;27;20043;-43
2023/08/01 00:32:35;;;;;;;17.55;7.57;;;15.80;99.90;;;;;;5114323;27;20051;-41
2023/08/01 00:35:01;;;;;;;15.05;7.28;;;15.90;99.90;;;;;;5115808;27;20050;-42
2023/08/01 00:37:27;;;;;;;15.10;6.95;;;16.00;99.90;;;;;;5118560;27;20043;-44
2023/08/01 00:39:52;;;;;;;17.02;7.10;;;16.00;99.90;;;;;;5119524;27;20100;-41
2023/08/01 00:42:18;;;;;;;14.82;6.88;;;16.00;99.90;;;;;;5118625;27;20047;-41
2023/08/01 00:44:43;;;;;;;16.00;7.00;;;16.00;99.90;;;;;;5118820;27;20070;-40
2023/08/01 00:47:10;;;;;;;15.65;6.78;;;15.90;99.90;;;;;;5118277;27;20734;-42
2023/08/01 00:49:36;;;;;;;10.82;6.10;;;16.00;99.90;;;;;;5121015;27;20090;-42
2023/08/01 00:52:02;;;;;;;14.30;6.63;;;15.90;99.90;;;;;;5139899;27;20126;-40
2023/08/01 00:54:28;;;;;;;13.85;6.10;;;15.90;99.90;;;;;;5139462;27;20046;-43
2023/08/01 00:56:54;;;;;;;12.85;6.65;;;15.90;99.90;;;;;;5123836;27;20039;-41
2023/08/01 00:59:20;;;;;;;12.32;6.13;;;15.80;99.90;;;;;;5118557;27;20043;-44
2023/08/01 01:01:45;;;;;;;13.38;6.82;;;15.80;99.90;;;;;;5118306;27;20300;-41
2023/08/01 01:04:11;;;;;;;11.32;6.60;;;15.70;99.90;;;;;;5118962;27;20492;-41
2023/08/01 01:06:59;;;;;;;13.63;6.63;;;15.70;99.90;;;;;;5118084;27;20478;-41
2023/08/01 01:09:29;;;;;;;10.38;6.65;;;15.70;99.90;;;;;;5099962;27;20562;-42
2023/08/01 01:11:54;;;;;;;19.20;7.95;;;15.70;99.90;;;;;;5118648;27;20215;-40
2023/08/01 01:14:20;;;;;;;14.63;8.00;;;15.70;99.90;;;;;;5117742;27;20047;-41
2023/08/01 01:16:46;;;;;;;20.85;9.55;;;15.70;99.90;;;;;;5116844;27;20039;-41
2023/08/01 01:19:11;;;;;;;19.25;10.13;;;15.70;99.90;;;;;;5118572;27;20527;-41
2023/08/01 01:21:42;;;;;;;17.50;9.90;;;15.70;99.90;;;;;;5099382;27;20515;-41
2023/08/01 01:24:11;;;;;;;22.63;10.20;;;15.70;99.90;;;;;;5117962;27;20556;-41
2023/08/01 01:26:38;;;;;;;21.95;10.88;;;15.70;99.90;;;;;;5098330;27;20039;-43
2023/08/01 01:29:05;;;;;;;14.68;8.82;;;15.70;99.90;;;;;;5116784;27;20081;-41
2023/08/01 01:31:32;;;;;;;22.63;9.15;;;15.60;99.90;;;;;;5098751;27;20464;-41
2023/08/01 01:33:59;;;;;;;20.95;8.98;;;15.60;99.90;;;;;;5117541;27;20051;-41
2023/08/01 01:36:24;;;;;;;20.10;9.15;;;15.70;99.90;;;;;;5116841;27;20051;-42
2023/08/01 01:38:50;;;;;;;26.20;9.52;;;15.60;99.90;;;;;;5118493;27;20464;-42
2023/08/01 01:41:15;;;;;;;20.85;9.23;;;15.60;99.90;;;;;;5118072;27;20089;-43
2023/08/01 01:43:41;;;;;;;23.52;9.50;;;15.50;99.90;;;;;;5116998;27;20081;-43
2023/08/01 01:46:07;;;;;;;17.88;8.52;;;15.50;99.90;;;;;;5116232;27;20054;-42
2023/08/01 01:48:32;;;;;;;19.50;9.32;;;15.40;99.90;;;;;;5081876;27;20043;-41
2023/08/01 01:50:58;;;;;;;15.43;8.25;;;15.40;99.90;;;;;;5117885;27;20038;-42
2023/08/01 01:53:24;;;;;;;19.92;8.25;;;15.40;99.90;;;;;;5116645;27;20047;-41
2023/08/01 01:55:50;;;;;;;18.75;8.80;;;15.30;99.90;;;;;;5116322;27;20043;-44
2023/08/01 01:58:15;;;;;;;16.65;8.23;;;15.30;99.90;;;;;;5117063;27;20043;-41
2023/08/01 02:00:41;;;;;;;22.15;9.20;;;15.30;99.90;;;;;;5117063;27;20649;-42
2023/08/01 02:03:10;;;;;;;24.88;10.10;;;15.30;99.90;;;;;;5117794;27;20072;-41
2023/08/01 02:05:36;;;;;;;23.48;9.70;;;15.40;99.90;;;;;;5116312;27;20054;-41
2023/08/01 02:08:01;;;;;;;19.48;8.98;;;15.40;99.90;;;;;;5116496;27;20563;-40
2023/08/01 02:10:27;;;;;;;21.63;8.52;;;15.40;99.90;;;;;;5122271;27;20055;-42
2023/08/01 02:12:53;;;;;;;20.98;9.38;;;15.40;99.90;;;;;;5137440;27;20409;-41
2023/08/01 02:15:18;;;;;;;21.23;8.57;;;15.60;99.90;;;;;;5136739;27;20860;-42
2023/08/01 02:17:44;;;;;;;20.02;8.75;;;15.60;99.90;;;;;;5136753;27;20179;-42
2023/08/01 02:20:10;;;;;;;22.67;10.02;;;15.60;99.90;;;;;;5137484;27;20624;-41
2023/08/01 02:22:36;;;;;;;19.80;8.93;;;15.60;99.90;;;;;;5137179;27;20046;-40
2023/08/01 02:25:01;;;;;;;22.40;8.55;;;15.60;99.90;;;;;;5137064;27;20061;-41
2023/08/01 02:27:27;;;;;;;23.35;9.52;;;15.60;99.90;;;;;;5136760;27;20440;-41
2023/08/01 02:29:52;;;;;;;22.20;9.35;;;15.70;99.90;;;;;;5136858;27;20074;-42
2023/08/01 02:32:18;;;;;;;19.00;7.85;;;15.60;99.90;;;;;;5125561;27;20082;-41
2023/08/01 02:34:44;;;;;;;14.02;6.00;;;15.80;99.90;;;;;;5117456;27;20039;-40
2023/08/01 02:37:09;;;;;;;8.07;4.03;;;15.70;99.90;;;;;;5115797;27;20043;-42
2023/08/01 02:39:35;;;;;;;13.07;3.85;;;15.50;99.90;;;;;;5115976;27;20170;-41
2023/08/01 02:42:01;;;;;;;9.18;2.50;;;15.50;99.90;;;;;;5116265;27;20472;-42
2023/08/01 02:44:27;;;;;;;6.60;2.45;;;15.40;99.90;;;;;;5115514;27;20377;-43
2023/08/01 02:46:52;;;;;;;10.07;3.25;;;15.40;99.90;;;;;;5095977;27;20062;-43
2023/08/01 02:49:18;;;;;;;10.43;2.47;;;15.30;99.90;;;;;;5115179;27;20054;-41
2023/08/01 02:51:44;;;;;;;9.05;2.22;;;15.20;99.90;;;;;;5115287;27;20047;-41
2023/08/01 02:54:09;;;;;;;7.40;2.10;;;15.20;99.90;;;;;;5116087;27;20043;-41
2023/08/01 02:56:37;;;;;;;6.82;2.63;;;15.10;99.90;;;;;;5115599;27;20069;-44
2023/08/01 02:59:04;;;;;;;10.15;2.38;;;15.10;99.90;;;;;;5116209;27;20118;-41
2023/08/01 03:01:30;;;;;;;5.25;2.00;;;15.10;99.90;;;;;;5115330;27;20279;-41
2023/08/01 03:03:55;;;;;;;7.72;2.42;;;15.00;99.90;;;;;;5116084;27;20047;-41
2023/08/01 03:06:21;;;;;;;6.20;2.13;;;15.10;99.90;;;;;;5096975;27;20453;-41
2023/08/01 03:08:47;;;;;;;6.03;2.55;;;15.00;99.90;;;;;;5097366;27;20501;-40
2023/08/01 03:11:13;;;;;;;9.98;2.28;;;15.10;99.90;;;;;;5097992;27;20075;-41
2023/08/01 03:13:38;;;;;;;4.80;2.08;;;15.00;99.90;;;;;;5115650;27;20066;-41
2023/08/01 03:16:04;;;;;;;9.02;2.72;;;15.00;99.90;;;;;;5114331;27;20626;-41
2023/08/01 03:18:30;;;;;;;8.95;3.63;;;15.00;99.90;;;;;;5115388;27;20051;-41
2023/08/01 03:20:55;;;;;;;6.25;2.83;;;14.90;99.90;;;;;;5116472;27;20051;-41
2023/08/01 03:23:21;;;;;;;8.95;3.35;;;14.90;99.90;;;;;;5116146;27;20050;-40
2023/08/01 03:25:47;;;;;;;11.18;3.75;;;14.80;99.90;;;;;;5114352;27;20229;-41
2023/08/01 03:28:14;;;;;;;9.63;4.55;;;14.80;99.90;;;;;;5115261;27;20050;-41
2023/08/01 03:30:39;;;;;;;7.93;4.03;;;14.80;99.90;;;;;;5096957;27;20055;-42
2023/08/01 03:33:05;;;;;;;7.97;3.55;;;14.80;99.90;;;;;;5114813;27;20114;-42
2023/08/01 03:35:30;;;;;;;12.18;4.40;;;14.80;99.90;;;;;;5113275;27;20131;-42
2023/08/01 03:37:56;;;;;;;10.45;3.90;;;14.80;99.90;;;;;;5114608;27;20051;-41
2023/08/01 03:40:22;;;;;;;12.32;4.85;;;14.90;99.90;;;;;;5116149;27;20051;-42
2023/08/01 03:42:48;;;;;;;10.43;5.13;;;14.90;99.90;;;;;;5115716;27;20054;-42
2023/08/01 03:45:13;;;;;;;10.10;5.78;;;14.90;99.90;;;;;;5114429;27;20047;-42
2023/08/01 03:47:39;;;;;;;8.40;5.30;;;14.90;99.90;;;;;;5114854;27;20043;-41
2023/08/01 03:50:05;;;;;;;9.32;5.38;;;14.80;99.90;;;;;;5115543;27;20051;-42
2023/08/01 03:52:31;;;;;;;8.10;5.47;;;14.90;99.90;;;;;;5096810;28;20421;-42
2023/08/01 03:54:57;;;;;;;5.68;3.95;;;14.80;99.90;;;;;;5096992;27;20428;-42
2023/08/01 03:57:23;;;;;;;7.15;3.38;;;14.90;99.90;;;;;;5115074;27;20047;-41
2023/08/01 03:59:49;;;;;;;7.00;4.22;;;15.00;99.90;;;;;;5116259;27;20066;-41
2023/08/01 04:02:14;;;;;;;7.53;3.80;;;14.90;99.90;;;;;;5115145;27;20043;-43
2023/08/01 04:04:40;;;;;;;7.85;3.78;;;14.90;99.90;;;;;;5115478;27;20054;-43
2023/08/01 04:07:05;;;;;;;5.22;2.38;;;14.80;99.90;;;;;;5114712;27;20517;-42
2023/08/01 04:09:31;;;;;;;5.72;2.20;;;14.90;99.90;;;;;;5116062;27;20058;-41
2023/08/01 04:11:57;;;;;;;5.38;2.15;;;14.90;99.90;;;;;;5122407;27;20054;-42
2023/08/01 04:14:22;;;;;;;5.13;2.50;;;14.90;99.90;;;;;;5103517;27;20799;-41
2023/08/01 04:16:48;;;;;;;7.40;2.50;;;14.90;99.90;;;;;;5120421;27;20506;-42
2023/08/01 04:19:14;;;;;;;6.05;2.22;;;14.80;99.90;;;;;;5102878;27;20039;-41
2023/08/01 04:21:40;;;;;;;6.45;2.17;;;14.80;99.90;;;;;;5121290;27;20047;-43
2023/08/01 04:24:05;;;;;;;6.43;2.65;;;14.90;99.90;;;;;;5121016;27;20051;-42
2023/08/01 04:26:31;;;;;;;9.93;2.30;;;14.90;99.90;;;;;;5101585;27;20176;-42
2023/08/01 04:28:57;;;;;;;6.28;2.67;;;14.90;99.90;;;;;;5121185;27;20055;-42
2023/08/01 04:31:22;;;;;;;5.32;2.70;;;15.00;99.90;;;;;;5121458;27;20378;-41
2023/08/01 04:33:48;;;;;;;5.88;2.95;;;15.00;99.90;;;;;;5120475;27;20043;-44
2023/08/01 04:36:13;;;;;;;11.18;3.22;;;15.10;99.90;;;;;;5119454;27;20051;-41
2023/08/01 04:38:39;;;;;;;7.70;3.38;;;15.10;99.90;;;;;;5103178;27;20099;-42
2023/08/01 04:41:05;;;;;;;7.85;3.33;;;15.20;99.90;;;;;;5102327;27;20547;-41
2023/08/01 04:43:31;;;;;;;6.85;4.22;;;15.20;99.90;;;;;;5121090;27;20589;-41
2023/08/01 04:45:56;;;;;;;8.95;3.50;;;15.30;99.90;;;;;;5100974;27;20042;-41
2023/08/01 04:48:22;;;;;;;10.27;3.78;;;15.20;99.90;;;;;;5121025;27;20112;-41
2023/08/01 04:50:48;;;;;;;8.93;3.55;;;15.30;99.90;;;;;;5121776;27;20139;-42
2023/08/01 04:53:13;;;;;;;5.60;3.67;;;15.20;99.90;;;;;;5121687;27;20054;-41
2023/08/01 04:55:40;;;;;;;5.10;3.17;;;15.30;99.90;;;;;;5120597;27;20054;-43
2023/08/01 04:58:06;;;;;;;6.38;3.35;;;15.60;99.90;;;;;;5122065;27;20444;-41
2023/08/01 05:00:31;;;;;;;7.63;3.13;;;15.80;99.90;;;;;;5121690;27;20046;-42
2023/08/01 05:02:57;;;;;;;4.80;2.90;;;16.00;99.90;;;;;;5103318;27;20066;-45
2023/08/01 05:05:23;;;;;;;5.57;3.42;;;16.30;99.90;;;;;;5121125;27;20215;-42
2023/08/01 05:07:48;;;;;;;6.68;3.00;;;16.50;99.90;;;;;;5121567;27;20039;-42
2023/08/01 05:10:14;;;;;;;4.40;2.70;;;16.50;99.90;;;;;;5119612;27;20051;-41
2023/08/01 05:12:40;;;;;;;5.22;2.63;;;16.30;99.90;;;;;;5102960;27;20039;-41
2023/08/01 05:15:06;;;;;;;5.68;2.55;;;16.10;99.90;;;;;;5120003;27;20104;-42
2023/08/01 05:17:31;;;;;;;5.55;2.22;;;16.10;99.90;;;;;;5122148;27;20039;-42
2023/08/01 05:19:57;;;;;;;5.20;2.30;;;16.00;99.90;;;;;;5121506;27;20047;-41
2023/08/01 05:22:23;;;;;;;5.60;2.53;;;16.00;99.90;;;;;;5117754;27;20094;-42
2023/08/01 05:24:48;;;;;;;5.95;2.63;;;16.10;99.90;;;;;;5117287;27;20055;-42
2023/08/01 05:27:14;;;;;;;7.45;2.70;;;16.30;99.90;;;;;;5097809;27;20054;-44
2023/08/01 05:29:40;;;;;;;8.25;3.03;;;16.70;99.90;;;;;;5116678;27;20043;-43
2023/08/01 05:32:06;;;;;;;3.72;2.22;;;16.80;99.90;;;;;;5099275;27;20443;-42
2023/08/01 05:34:31;;;;;;;5.10;2.58;;;16.70;99.90;;;;;;5117082;27;20083;-42
2023/08/01 05:36:57;;;;;;;4.55;2.45;;;16.60;99.90;;;;;;5098405;27;20812;-42
2023/08/01 05:39:22;;;;;;;7.72;2.58;;;16.40;99.90;;;;;;5119676;27;20034;-42
2023/08/01 05:41:50;;;;;;;7.35;2.97;;;16.30;99.90;;;;;;5137147;27;20053;-41
2023/08/01 05:44:15;;;;;;;7.32;3.28;;;16.10;99.90;;;;;;5119457;27;20058;-41
2023/08/01 05:46:41;;;;;;;7.63;3.60;;;16.00;99.90;;;;;;5136751;27;20080;-42
2023/08/01 05:49:07;;;;;;;13.45;3.53;;;15.90;99.90;;;;;;5138434;27;20054;-43
2023/08/01 05:51:32;;;;;;;7.18;3.28;;;15.90;99.90;;;;;;5137918;27;20590;-43
2023/08/01 05:53:58;;;;;;;8.32;3.78;;;15.90;99.90;;;;;;5119424;27;20453;-42
2023/08/01 05:56:24;;;;;;;8.07;3.80;;;15.80;99.90;;;;;;5137956;27;20385;-43
2023/08/01 05:58:50;;;;;;;10.00;3.88;;;15.80;99.90;;;;;;5118703;27;20062;-41
2023/08/01 06:01:16;;;;;;;11.00;3.67;;;15.80;99.90;;;;;;5139068;27;20496;-41
2023/08/01 06:03:42;;;;;;;8.45;3.28;;;15.70;99.90;;;;;;5106107;27;20046;-44
2023/08/01 06:06:08;;;;;;;8.25;3.05;;;15.70;99.90;;;;;;5098393;27;20053;-41
2023/08/01 06:08:34;;;;;;;7.03;2.65;;;15.70;99.90;;;;;;5116092;27;21246;-43
2023/08/01 06:10:59;;;;;;;12.27;3.05;;;15.70;99.90;;;;;;5116845;27;20554;-49
2023/08/01 06:13:25;;;;;;;8.38;2.13;;;15.60;99.90;;;;;;5098500;27;20088;-41
2023/08/01 06:15:51;;;;;;;11.52;2.33;;;15.60;99.90;;;;;;5116577;27;20474;-41
2023/08/01 06:18:16;;;;;;;10.57;2.30;;;15.60;99.90;;;;;;5117463;27;20421;-42
2023/08/01 06:20:42;;;;;;;11.63;2.45;;;15.60;99.90;;;;;;5117362;27;20299;-42
2023/08/01 06:23:08;;;;;;;8.63;2.20;;;15.70;99.90;;;;;;5117277;27;20039;-43
2023/08/01 06:25:33;;;;;;;8.35;2.30;;;15.70;99.90;;;;;;5115456;27;20043;-41
2023/08/01 06:27:59;;;;;;;10.65;2.45;;;15.80;99.90;;;;;;5120449;27;20054;-41
2023/08/01 06:30:24;;;;;;;8.30;1.85;;;16.00;99.90;;;;;;5125729;27;20093;-43
2023/08/01 06:32:50;;;;;;;7.40;1.52;;;16.00;99.90;;;;;;5129778;27;20085;-43
2023/08/01 06:35:16;;;;;;;8.88;1.83;;;16.10;99.90;;;;;;5136680;27;20046;-41
2023/08/01 06:37:41;;;;;;;11.73;2.70;;;16.10;99.90;;;;;;5101391;27;20067;-42
2023/08/01 06:40:08;;;;;;;12.55;2.35;;;16.10;99.90;;;;;;5093657;27;20054;-41
2023/08/01 06:42:33;;;;;;;12.25;2.42;;;16.10;99.90;;;;;;5097306;27;20050;-41
2023/08/01 06:44:59;;;;;;;19.40;2.20;;;16.20;99.90;;;;;;5096997;27;20104;-41
2023/08/01 06:47:25;;;;;;;13.63;2.60;;;16.30;99.90;;;;;;5111675;27;20424;-42
2023/08/01 06:49:50;;;;;;;13.25;2.83;;;16.40;99.90;;;;;;5115574;27;20051;-42
2023/08/01 06:52:16;;;;;;;9.13;2.30;;;16.40;99.90;;;;;;5097224;27;20047;-41
2023/08/01 06:54:42;;;;;;;8.75;1.70;;;16.30;99.90;;;;;;5116624;27;20039;-42
2023/08/01 06:57:08;;;;;;;6.10;1.70;;;16.30;99.90;;;;;;5114765;27;20079;-44
2023/08/01 06:59:33;;;;;;;5.85;1.75;;;16.20;99.90;;;;;;5115493;27;20495;-41
2023/08/01 07:02:00;;;;;;;6.50;2.00;;;16.10;99.90;;;;;;5116494;27;20190;-42
2023/08/01 07:04:25;;;;;;;11.10;2.15;;;16.10;99.90;;;;;;5095940;27;20484;-41
2023/08/01 07:06:51;;;;;;;10.43;2.20;;;16.10;99.90;;;;;;5114407;27;20047;-41
2023/08/01 07:09:17;;;;;;;7.10;2.03;;;16.00;99.90;;;;;;5112192;27;20514;-41
2023/08/01 07:11:42;;;;;;;5.85;2.03;;;16.00;99.90;;;;;;5107505;27;20043;-42
2023/08/01 07:14:08;;;;;;;14.48;2.72;;;16.10;99.90;;;;;;5098863;27;20043;-42
2023/08/01 07:16:34;;;;;;;7.32;2.20;;;16.10;99.90;;;;;;5091806;27;20105;-41
2023/08/01 07:19:02;;;;;;;5.88;1.85;;;16.10;99.90;;;;;;5099629;27;20100;-41
2023/08/01 07:21:28;;;;;;;7.65;2.08;;;16.10;99.90;;;;;;5103847;27;20055;-43
2023/08/01 07:23:54;;;;;;;8.07;2.25;;;16.20;99.90;;;;;;5095436;27;20514;-42
2023/08/01 07:26:20;;;;;;;6.53;2.20;;;16.30;99.90;;;;;;5094542;27;20042;-42
2023/08/01 07:28:45;;;;;;;8.48;2.58;;;16.30;99.90;;;;;;5104797;27;20044;-41
2023/08/01 07:31:11;;;;;;;9.60;2.90;;;16.30;99.90;;;;;;5094896;27;20481;-41
2023/08/01 07:33:37;;;;;;;9.13;2.30;;;16.30;99.90;;;;;;5081849;28;20159;-41
2023/08/01 07:36:03;;;;;;;11.65;3.35;;;16.20;99.90;;;;;;5097557;27;20051;-42
2023/08/01 07:38:31;;;;;;;8.98;2.67;;;16.10;99.90;;;;;;5097548;27;20043;-41
2023/08/01 07:40:57;;;;;;;13.07;2.65;;;16.00;99.90;;;;;;5096393;27;20482;-41
2023/08/01 07:43:23;;;;;;;7.70;2.20;;;15.90;99.90;;;;;;5100893;27;20039;-42
2023/08/01 07:45:50;;;;;;;7.57;2.83;;;15.80;99.90;;;;;;5099347;27;20071;-41
2023/08/01 07:48:16;;;;;;;6.63;2.03;;;15.70;99.90;;;;;;5093194;27;20429;-41
2023/08/01 07:50:42;;;;;;;8.05;2.45;;;15.60;99.90;;;;;;5096896;27;20047;-41
2023/08/01 07:53:07;;;;;;;7.15;2.33;;;15.50;99.90;;;;;;5095931;27;20166;-41
2023/08/01 07:55:34;;;;;;;8.80;2.55;;;15.50;99.90;;;;;;5081651;27;20459;-41
2023/08/01 07:58:00;;;;;;;8.43;2.53;;;15.50;99.90;;;;;;5094867;27;20077;-41
2023/08/01 08:00:25;;;;;;;5.47;2.55;;;15.40;99.90;;;;;;5097276;27;20585;-43
2023/08/01 08:02:53;;;;;;;8.48;2.97;;;15.50;99.90;;;;;;5084392;28;20131;-42
2023/08/01 08:05:19;;;;;;;13.77;3.60;;;15.60;99.90;;;;;;5099542;27;20077;-42
2023/08/01 08:07:44;;;;;;;7.53;2.63;;;15.50;99.90;;;;;;5095604;27;20047;-43
2023/08/01 08:10:10;;;;;;;8.57;3.03;;;15.60;99.90;;;;;;5089685;27;20128;-43
2023/08/01 08:12:36;;;;;;;8.18;2.92;;;15.70;99.90;;;;;;5096813;27;20035;-42
2023/08/01 08:15:02;;;;;;;11.57;2.55;;;15.70;99.90;;;;;;5095583;27;20059;-41
2023/08/01 08:17:28;;;;;;;5.78;2.30;;;15.80;99.90;;;;;;5094877;27;20044;-43
2023/08/01 08:19:53;;;;;;;8.60;2.53;;;15.90;99.90;;;;;;5094781;27;20051;-42
2023/08/01 08:22:19;;;;;;;10.38;3.38;;;15.90;99.90;;;;;;5085682;28;20047;-41
2023/08/01 08:24:45;;;;;;;5.97;2.28;;;15.80;99.90;;;;;;5097552;27;20354;-41
2023/08/01 08:27:10;;;;;;;7.47;2.60;;;15.80;99.90;;;;;;5092240;28;20755;-44
2023/08/01 08:29:36;;;;;;;9.90;3.03;;;15.70;99.90;;;;;;5099744;27;20076;-42
2023/08/01 08:32:02;;;;;;;7.38;2.78;;;15.80;99.90;;;;;;5065842;28;20136;-43
2023/08/01 08:34:27;;;;;;;8.25;2.70;;;15.80;99.90;;;;;;5108170;27;20066;-42
2023/08/01 08:36:53;;;;;;;9.25;3.22;;;15.90;99.90;;;;;;5079970;28;20136;-41
2023/08/01 08:39:19;;;;;;;10.35;3.83;;;16.00;99.90;;;;;;5094039;27;20131;-41
2023/08/01 08:41:51;;;;;;;10.05;3.05;;;16.10;99.90;;;;;;5086964;28;20134;-43
2023/08/01 08:44:22;;;;;;;9.70;2.97;;;16.10;99.90;;;;;;5079888;28;20059;-42
2023/08/01 08:46:52;;;;;;;7.47;3.20;;;16.10;99.90;;;;;;5088983;27;20175;-41
2023/08/01 08:49:21;;;;;;;9.70;2.92;;;16.10;99.90;;;;;;5097013;27;20091;-42
2023/08/01 08:51:48;;;;;;;8.10;3.20;;;16.00;99.90;;;;;;5093471;27;20106;-42
2023/08/01 08:54:16;;;;;;;8.05;2.75;;;15.90;99.90;;;;;;5094341;27;20097;-41
2023/08/01 08:56:41;;;;;;;8.88;3.33;;;15.90;99.90;;;;;;5092504;27;20274;-40
2023/08/01 08:59:10;;;;;;;9.75;4.03;;;15.90;99.90;;;;;;5099297;27;20054;-42
2023/08/01 09:01:39;;;;;;;5.72;3.45;;;15.90;99.90;;;;;;5084076;27;20050;-42
2023/08/01 09:04:06;;;;;;;14.40;4.13;;;16.00;99.90;;;;;;5101887;27;20055;-42
2023/08/01 09:06:35;;;;;;;10.30;3.78;;;16.10;99.90;;;;;;5111958;27;20040;-42
2023/08/01 09:09:02;;;;;;;6.82;3.72;;;16.10;99.90;;;;;;5112991;27;20560;-42
2023/08/01 09:11:28;;;;;;;10.43;4.07;;;16.20;99.90;;;;;;5117413;27;20043;-42
2023/08/01 09:13:53;;;;;;;14.27;5.00;;;16.20;99.90;;;;;;5115924;27;20486;-42
2023/08/01 09:16:19;;;;;;;9.00;4.00;;;16.20;99.90;;;;;;5096204;27;20155;-42
2023/08/01 09:18:52;;;;;;;11.32;4.70;;;16.20;99.90;;;;;;5116996;27;20184;-40
2023/08/01 09:21:22;;;;;;;11.40;4.28;;;16.20;99.90;;;;;;5115813;27;20051;-42
2023/08/01 09:23:48;;;;;;;14.20;3.45;;;16.40;99.90;;;;;;5116642;27;20047;-41
2023/08/01 09:26:18;;;;;;;13.82;4.28;;;16.30;99.90;;;;;;5115925;27;20469;-41
2023/08/01 09:28:44;;;;;;;28.27;4.65;;;16.30;99.90;;;;;;5115414;27;20070;-41
2023/08/01 09:31:11;;;;;;;6.18;2.65;;;16.20;99.90;;;;;;5133171;27;20057;-42
2023/08/01 09:33:41;;;;;;;5.68;2.20;;;16.20;99.90;;;;;;5138422;27;20089;-43
2023/08/01 09:36:07;;;;;;;21.50;4.30;;;16.20;99.90;;;;;;5097632;27;20696;-41
2023/08/01 09:38:37;;;;;;;10.10;2.92;;;16.00;99.90;;;;;;5116692;27;20047;-41
2023/08/01 09:41:04;;;;;;;9.15;2.90;;;16.00;99.90;;;;;;5116714;27;20049;-41
2023/08/01 09:43:37;;;;;;;7.43;2.83;;;15.90;99.90;;;;;;5117106;27;20592;-43
2023/08/01 09:46:06;;;;;;;7.85;2.72;;;16.00;99.90;;;;;;5115612;27;20454;-41
2023/08/01 09:48:31;;;;;;;13.15;3.78;;;16.20;99.90;;;;;;5109969;27;20527;-42
2023/08/01 09:51:11;;;;;;;9.13;3.28;;;16.50;99.90;;;;;;5115392;27;20089;-41
2023/08/01 09:53:52;;;;;;;8.65;3.58;;;16.90;99.90;;;;;;5098640;27;20055;-41
2023/08/01 09:56:24;;;;;;;8.65;3.08;;;17.30;99.90;;;;;;5114811;27;20134;-41
2023/08/01 09:58:51;;;;;;;6.63;2.80;;;17.40;99.90;;;;;;5098061;27;20059;-41
2023/08/01 10:01:19;;;;;;;8.80;3.55;;;17.10;99.90;;;;;;5116430;27;20438;-44
2023/08/01 10:03:50;;;;;;;12.05;3.42;;;17.00;99.90;;;;;;5116823;27;20129;-41
2023/08/01 10:06:19;;;;;;;13.07;3.60;;;16.90;99.90;;;;;;5114984;27;20532;-41
2023/08/01 10:08:46;;;;;;;11.13;3.95;;;17.20;99.90;;;;;;5113332;27;20043;-42
2023/08/01 10:11:14;;;;;;;19.45;5.18;;;17.70;99.90;;;;;;5098314;27;20143;-41
2023/08/01 10:13:42;;;;;;;8.85;3.80;;;17.90;99.90;;;;;;5098339;27;20067;-42
2023/08/01 10:16:08;;;;;;;10.35;3.58;;;18.10;99.90;;;;;;5098260;27;20050;-40
2023/08/01 10:18:37;;;;;;;24.17;9.23;;;18.40;99.90;;;;;;5116605;27;20071;-41
2023/08/01 10:21:07;;;;;;;15.32;3.63;;;18.60;99.90;;;;;;5116321;27;20055;-42
2023/08/01 10:23:33;;;;;;;10.40;2.70;;;18.90;99.90;;;;;;5116042;27;20127;-41
2023/08/01 10:26:01;;;;;;;11.02;2.50;;;19.00;99.90;;;;;;5114663;27;20100;-41
2023/08/01 10:28:34;;;;;;;12.32;2.65;;;19.00;99.90;;;;;;5116570;27;20109;-42
2023/08/01 10:31:13;;;;;;;10.43;2.80;;;19.10;99.90;;;;;;5116551;27;20089;-41
2023/08/01 10:33:40;;;;;;;7.70;2.30;;;19.10;99.90;;;;;;5116623;27;20089;-41
2023/08/01 10:36:26;;;;;;;8.05;2.55;;;19.30;99.90;;;;;;5115862;27;20159;-42
2023/08/01 10:38:58;;;;;;;13.10;3.25;;;19.10;99.90;;;;;;5117164;27;20059;-42
2023/08/01 10:41:34;;;;;;;10.40;2.45;;;18.80;99.90;;;;;;5116564;27;20531;-42
2023/08/01 10:44:10;;;;;;;9.85;2.42;;;18.60;99.90;;;;;;5115778;27;20046;-42
2023/08/01 10:46:52;;;;;;;7.18;2.42;;;18.30;99.90;;;;;;5096671;27;20051;-43
2023/08/01 10:49:19;;;;;;;8.10;2.00;;;18.50;99.90;;;;;;5116851;27;20605;-42
2023/08/01 10:51:45;;;;;;;10.88;2.67;;;18.70;99.90;;;;;;5116195;27;20043;-44
2023/08/01 10:54:25;;;;;;;7.65;2.58;;;18.80;99.90;;;;;;5100784;27;20125;-43
2023/08/01 10:56:53;;;;;;;10.55;2.60;;;19.00;99.90;;;;;;5081948;27;20047;-42
2023/08/01 10:59:19;;;;;;;10.20;2.90;;;18.90;99.90;;;;;;5098702;27;20436;-45
2023/08/01 11:01:47;;;;;;;9.05;2.63;;;18.80;99.90;;;;;;5097604;27;20074;-42
2023/08/01 11:04:18;;;;;;;10.13;2.83;;;18.70;99.90;;;;;;5094874;27;20520;-42
2023/08/01 11:06:56;;;;;;;9.35;2.58;;;18.60;99.90;;;;;;5095325;27;20043;-43
2023/08/01 11:09:26;;;;;;;12.25;2.58;;;18.30;99.90;;;;;;5098534;27;20627;-42
2023/08/01 11:11:59;;;;;;;8.68;2.55;;;18.20;99.90;;;;;;5111341;27;20090;-43
2023/08/01 11:14:29;;;;;;;8.73;2.17;;;18.30;99.90;;;;;;5096104;27;20827;-42
2023/08/01 11:16:56;;;;;;;8.30;2.75;;;18.50;99.90;;;;;;5095785;27;20088;-43
2023/08/01 11:19:29;;;;;;;10.43;2.63;;;18.50;99.90;;;;;;5115040;27;20043;-40
2023/08/01 11:21:56;;;;;;;7.43;2.35;;;18.40;99.90;;;;;;5113192;27;20062;-41
2023/08/01 11:24:23;;;;;;;10.18;2.13;;;18.30;99.90;;;;;;5095259;27;20043;-43
2023/08/01 11:26:50;;;;;;;16.05;2.38;;;18.30;99.90;;;;;;5113099;27;20388;-43
2023/08/01 11:29:18;;;;;;;8.50;2.40;;;18.40;99.90;;;;;;5114092;27;20104;-42
2023/08/01 11:31:57;;;;;;;10.85;3.65;;;18.40;99.90;;;;;;5114299;27;20092;-41
2023/08/01 11:34:23;;;;;;;8.20;2.63;;;18.50;99.90;;;;;;5109123;27;20042;-41
2023/08/01 11:36:50;;;;;;;11.63;2.80;;;18.50;99.90;;;;;;5076176;27;20617;-42
2023/08/01 11:39:16;;;;;;;6.75;2.70;;;18.80;99.90;;;;;;5096848;27;20697;-42
2023/08/01 11:41:43;;;;;;;10.10;2.92;;;19.00;99.90;;;;;;5096051;27;20050;-42
2023/08/01 11:44:10;;;;;;;9.07;2.67;;;19.10;99.90;;;;;;5074807;27;20043;-42
2023/08/01 11:46:37;;;;;;;9.65;2.83;;;19.00;99.90;;;;;;5093710;27;20051;-41
2023/08/01 11:49:05;;;;;;;10.10;3.03;;;19.20;99.90;;;;;;5096890;27;20071;-42
2023/08/01 11:51:39;;;;;;;8.48;2.20;;;19.50;99.90;;;;;;5105072;27;20051;-41
2023/08/01 11:54:05;;;;;;;10.68;2.85;;;19.60;99.90;;;;;;5114208;27;20388;-42
2023/08/01 11:56:31;;;;;;;9.88;2.35;;;19.90;99.90;;;;;;5112507;27;20043;-43
2023/08/01 11:58:58;;;;;;;8.25;2.53;;;20.00;99.90;;;;;;5113667;27;20039;-45
2023/08/01 12:01:24;;;;;;;7.38;2.13;;;20.00;99.90;;;;;;5113028;27;20069;-42
2023/08/01 12:03:51;;;;;;;12.18;2.95;;;19.90;99.90;;;;;;5113951;27;20394;-42
2023/08/01 12:06:19;;;;;;;8.02;2.42;;;19.90;99.90;;;;;;5113428;27;20480;-44
2023/08/01 12:08:46;;;;;;;9.52;2.50;;;19.70;99.90;;;;;;5111421;27;20126;-43
2023/08/01 12:11:23;;;;;;;10.13;2.55;;;19.60;99.90;;;;;;5105514;27;20050;-41
2023/08/01 12:14:09;;;;;;;8.95;2.33;;;19.70;99.90;;;;;;5108606;27;20480;-43
2023/08/01 12:16:36;;;;;;;8.73;2.08;;;19.70;99.90;;;;;;5108291;27;20148;-41
2023/08/01 12:19:02;;;;;;;7.60;2.40;;;19.70;99.90;;;;;;5074065;28;20056;-42
2023/08/01 12:21:29;;;;;;;9.15;2.47;;;19.50;99.90;;;;;;5109212;28;20124;-42
2023/08/01 12:23:55;;;;;;;14.98;3.35;;;19.60;99.90;;;;;;5113801;28;20043;-41
2023/08/01 12:26:20;;;;;;;7.10;2.45;;;19.50;99.90;;;;;;5113109;27;20052;-42
2023/08/01 12:28:47;;;;;;;8.65;2.60;;;19.90;99.90;;;;;;5085722;28;20047;-43
2023/08/01 12:31:19;;;;;;;7.13;2.15;;;20.10;99.90;;;;;;5093384;27;20050;-41
2023/08/01 12:33:46;;;;;;;8.32;1.80;;;20.30;99.90;;;;;;5127520;27;20491;-42
2023/08/01 12:36:13;;;;;;;17.70;3.03;;;20.20;99.90;;;;;;5113377;27;20575;-41
2023/08/01 12:38:39;;;;;;;5.57;2.15;;;20.10;99.90;;;;;;5100055;27;20083;-42
2023/08/01 12:41:06;;;;;;;4.70;1.40;;;20.20;99.90;;;;;;5118561;27;20154;-44